Time;durP1;ratioP1;P1;durP2;ratioP2;P2;SDS_P1;SDS_P2;PMS_P1;PMS_P2;Temp;Humidity;BMP_temperature;BMP_pressure;BME280_temperature;BME280_humidity;BME280_pressure;Samples;Min_cycle;Max_cycle;Signal;HPM_P1;HPM_P2
2023/03/12 00:01:28;;;;;;;;;;;;;;;;;;5047690;28;4531;-58
2023/03/12 00:03:54;;;;;;;;;;;;;;;;;;5044652;28;5192;-58
2023/03/12 00:06:19;;;;;;;;;;;;;;;;;;5044724;28;1217;-58
2023/03/12 00:08:44;;;;;;;;;;;;;;;;;;5042328;28;5203;-58
2023/03/12 00:11:10;;;;;;;;;;;;;;;;;;5041676;28;5186;-58
2023/03/12 00:13:36;;;;;;;;;;;;;;;;;;5042044;28;4531;-58
2023/03/12 00:16:05;;;;;;;;;;;;;;;;;;5045437;28;5035;-57
2023/03/12 00:18:30;;;;;;;;;;;;;;;;;;5044060;28;4818;-58
2023/03/12 00:20:55;;;;;;;;;;;;;;;;;;5045727;28;5038;-58
2023/03/12 00:23:21;;;;;;;;;;;;;;;;;;5044198;28;4476;-58
2023/03/12 00:25:46;;;;;;;;;;;;;;;;;;5046468;28;5108;-58
2023/03/12 00:28:11;;;;;;;;;;;;;;;;;;5046366;28;5114;-58
2023/03/12 00:30:36;;;;;;;;;;;;;;;;;;5045914;28;1121;-58
2023/03/12 00:33:02;;;;;;;;;;;;;;;;;;5044661;28;4832;-59
2023/03/12 00:35:27;;;;;;;;;;;;;;;;;;5047528;28;5043;-58
2023/03/12 00:37:52;;;;;;;;;;;;;;;;;;5045463;28;5017;-58
2023/03/12 00:40:17;;;;;;;;;;;;;;;;;;5046121;28;4690;-59
2023/03/12 00:42:43;;;;;;;;;;;;;;;;;;5042337;28;5044;-59
2023/03/12 00:45:08;;;;;;;;;;;;;;;;;;5041127;28;1120;-59
2023/03/12 00:47:33;;;;;;;;;;;;;;;;;;5038129;28;5040;-59
2023/03/12 00:49:59;;;;;;;;;;;;;;;;;;5043635;28;4794;-59
2023/03/12 00:52:24;;;;;;;;;;;;;;;;;;5044970;28;4595;-58
2023/03/12 00:54:49;;;;;;;;;;;;;;;;;;5039368;28;5064;-58
2023/03/12 00:57:15;;;;;;;;;;;;;;;;;;5042108;28;1127;-58
2023/03/12 00:59:41;;;;;;;;;;;;;;;;;;5043143;28;4639;-58
2023/03/12 01:02:06;;;;;;;;;;;;;;;;;;5038711;28;5028;-58
2023/03/12 01:04:32;;;;;;;;;;;;;;;;;;5044097;28;4948;-58
2023/03/12 01:06:57;;;;;;;;;;;;;;;;;;5042980;28;5411;-59
2023/03/12 01:09:22;;;;;;;;;;;;;;;;;;5039133;28;1144;-58
2023/03/12 01:11:47;;;;;;;;;;;;;;;;;;5035560;28;4703;-59
2023/03/12 01:14:13;;;;;;;;;;;;;;;;;;5041648;28;4497;-58
2023/03/12 01:16:38;;;;;;;;;;;;;;;;;;5043674;28;5071;-59
2023/03/12 01:19:03;;;;;;;;;;;;;;;;;;5041923;28;4973;-59
2023/03/12 01:21:29;;;;;;;;;;;;;;;;;;5046010;28;1211;-59
2023/03/12 01:23:54;;;;;;;;;;;;;;;;;;5040004;28;4587;-59
2023/03/12 01:26:19;;;;;;;;;;;;;;;;;;5044084;28;4459;-59
2023/03/12 01:28:44;;;;;;;;;;;;;;;;;;5036816;28;4694;-58
2023/03/12 01:31:11;;;;;;;;;;;;;;;;;;5046566;28;4454;-58
2023/03/12 01:33:36;;;;;;;;;;;;;;;;;;5047204;28;1910;-58
2023/03/12 01:36:01;;;;;;;;;;;;;;;;;;5042164;28;5045;-59
2023/03/12 01:38:27;;;;;;;;;;;;;;;;;;5037355;28;5144;-59
2023/03/12 01:40:52;;;;;;;;;;;;;;;;;;5046741;28;4494;-59
2023/03/12 01:43:31;;;;;;;;;;;;;;;;;;5040027;28;4586;-58
2023/03/12 01:46:14;;;;;;;;;;;;;;;;;;5040591;28;5008;-58
2023/03/12 01:48:43;;;;;;;;;;;;;;;;;;5042330;28;4998;-58
2023/03/12 01:51:09;;;;;;;;;;;;;;;;;;5035100;28;1927;-58
2023/03/12 01:53:34;;;;;;;;;;;;;;;;;;5039763;28;5456;-58
2023/03/12 01:56:00;;;;;;;;;;;;;;;;;;5037473;28;5169;-58
2023/03/12 01:58:25;;;;;;;;;;;;;;;;;;5034236;28;4928;-59
2023/03/12 02:00:50;;;;;;;;;;;;;;;;;;5040248;28;4499;-58
2023/03/12 02:03:16;;;;;;;;;;;;;;;;;;5043892;28;2481;-58
2023/03/12 02:05:43;;;;;;;;;;;;;;;;;;5036827;28;5103;-58
2023/03/12 02:08:12;;;;;;;;;;;;;;;;;;5027381;28;4648;-59
2023/03/12 02:10:37;;;;;;;;;;;;;;;;;;5034061;28;5015;-58
2023/03/12 02:13:02;;;;;;;;;;;;;;;;;;5030893;28;4737;-59
2023/03/12 02:15:27;;;;;;;;;;;;;;;;;;5041460;28;1324;-58
2023/03/12 02:17:53;;;;;;;;;;;;;;;;;;5076313;28;4807;-58
2023/03/12 02:20:26;;;;;;;;;;;;;;;;;;5039026;28;4940;-58
2023/03/12 02:22:56;;;;;;;;;;;;;;;;;;5078292;28;5121;-58
2023/03/12 02:25:29;;;;;;;;;;;;;;;;;;5044133;28;4948;-59
2023/03/12 02:27:55;;;;;;;;;;;;;;;;;;5068991;28;5142;-58
2023/03/12 02:30:20;;;;;;;;;;;;;;;;;;5046877;28;1246;-58
2023/03/12 02:32:45;;;;;;;;;;;;;;;;;;5040346;28;4388;-58
2023/03/12 02:35:12;;;;;;;;;;;;;;;;;;5038045;28;4511;-57
2023/03/12 02:37:46;;;;;;;;;;;;;;;;;;5045543;28;5231;-58
2023/03/12 02:40:12;;;;;;;;;;;;;;;;;;5039367;28;4433;-58
2023/03/12 02:42:37;;;;;;;;;;;;;;;;;;5037313;28;1329;-58
2023/03/12 02:45:03;;;;;;;;;;;;;;;;;;5042438;28;4588;-58
2023/03/12 02:47:28;;;;;;;;;;;;;;;;;;5073755;28;4532;-59
2023/03/12 02:49:53;;;;;;;;;;;;;;;;;;5045238;28;5465;-58
2023/03/12 02:52:19;;;;;;;;;;;;;;;;;;5041522;28;4627;-59
2023/03/12 02:54:44;;;;;;;;;;;;;;;;;;5037356;28;4544;-58
2023/03/12 02:57:09;;;;;;;;;;;;;;;;;;5040734;28;1069;-58
2023/03/12 02:59:34;;;;;;;;;;;;;;;;;;5043031;28;4838;-58
2023/03/12 03:02:00;;;;;;;;;;;;;;;;;;5038834;28;4468;-58
2023/03/12 03:04:26;;;;;;;;;;;;;;;;;;5049970;28;5112;-59
2023/03/12 03:06:52;;;;;;;;;;;;;;;;;;5043065;28;4742;-58
2023/03/12 03:09:18;;;;;;;;;;;;;;;;;;5047417;28;1371;-59
2023/03/12 03:11:43;;;;;;;;;;;;;;;;;;5046793;28;4544;-59
2023/03/12 03:14:09;;;;;;;;;;;;;;;;;;5043623;28;4589;-58
2023/03/12 03:16:34;;;;;;;;;;;;;;;;;;5047537;28;4478;-58
2023/03/12 03:18:59;;;;;;;;;;;;;;;;;;5049585;28;4909;-58
2023/03/12 03:21:24;;;;;;;;;;;;;;;;;;5047899;28;1272;-58
2023/03/12 03:23:50;;;;;;;;;;;;;;;;;;5049157;28;4604;-59
2023/03/12 03:26:16;;;;;;;;;;;;;;;;;;5049500;28;4506;-59
2023/03/12 03:28:41;;;;;;;;;;;;;;;;;;5048118;28;5054;-58
2023/03/12 03:31:06;;;;;;;;;;;;;;;;;;5044398;28;4617;-58
2023/03/12 03:33:32;;;;;;;;;;;;;;;;;;5049643;28;1927;-59
2023/03/12 03:35:58;;;;;;;;;;;;;;;;;;5042434;28;4680;-58
2023/03/12 03:38:24;;;;;;;;;;;;;;;;;;5076367;28;5129;-58
2023/03/12 03:40:49;;;;;;;;;;;;;;;;;;5049179;28;4475;-59
2023/03/12 03:43:14;;;;;;;;;;;;;;;;;;5046905;28;4597;-58
2023/03/12 03:45:39;;;;;;;;;;;;;;;;;;5047937;28;4491;-58
2023/03/12 03:48:05;;;;;;;;;;;;;;;;;;5040413;28;1125;-58
2023/03/12 03:50:30;;;;;;;;;;;;;;;;;;5041767;28;5000;-58
2023/03/12 03:52:55;;;;;;;;;;;;;;;;;;5038999;28;4579;-59
2023/03/12 03:55:21;;;;;;;;;;;;;;;;;;5046523;28;4626;-58
2023/03/12 03:57:46;;;;;;;;;;;;;;;;;;5042839;28;4448;-58
2023/03/12 04:00:12;;;;;;;;;;;;;;;;;;5047962;28;1331;-58
2023/03/12 04:02:37;;;;;;;;;;;;;;;;;;5040431;28;4460;-58
2023/03/12 04:05:02;;;;;;;;;;;;;;;;;;5043543;28;5029;-58
2023/03/12 04:07:28;;;;;;;;;;;;;;;;;;5035768;28;5319;-58
2023/03/12 04:09:53;;;;;;;;;;;;;;;;;;5043351;28;4651;-58
2023/03/12 04:12:19;;;;;;;;;;;;;;;;;;5036155;28;1377;-58
2023/03/12 04:14:44;;;;;;;;;;;;;;;;;;5045494;28;4631;-58
2023/03/12 04:17:09;;;;;;;;;;;;;;;;;;5040395;28;5816;-58
2023/03/12 04:19:35;;;;;;;;;;;;;;;;;;5044517;28;4897;-58
2023/03/12 04:22:00;;;;;;;;;;;;;;;;;;5045816;28;4473;-58
2023/03/12 04:24:25;;;;;;;;;;;;;;;;;;5048255;28;1131;-59
2023/03/12 04:26:50;;;;;;;;;;;;;;;;;;5047395;28;4727;-58
2023/03/12 04:29:16;;;;;;;;;;;;;;;;;;5045936;28;5056;-58
2023/03/12 04:31:42;;;;;;;;;;;;;;;;;;5046950;28;4611;-58
2023/03/12 04:34:08;;;;;;;;;;;;;;;;;;5043361;28;5112;-59
2023/03/12 04:36:33;;;;;;;;;;;;;;;;;;5040855;28;1106;-58
2023/03/12 04:38:58;;;;;;;;;;;;;;;;;;5048610;28;4820;-59
2023/03/12 04:41:23;;;;;;;;;;;;;;;;;;5042732;28;4658;-58
2023/03/12 04:43:49;;;;;;;;;;;;;;;;;;5046455;28;5013;-59
2023/03/12 04:46:14;;;;;;;;;;;;;;;;;;5032320;28;5034;-59
2023/03/12 04:48:39;;;;;;;;;;;;;;;;;;5042007;28;4486;-58
2023/03/12 04:51:04;;;;;;;;;;;;;;;;;;5050885;28;3576;-58
2023/03/12 04:53:30;;;;;;;;;;;;;;;;;;5047074;28;4508;-59
2023/03/12 04:55:55;;;;;;;;;;;;;;;;;;5047951;28;4761;-59
2023/03/12 04:58:20;;;;;;;;;;;;;;;;;;5052380;28;4694;-58
2023/03/12 05:00:46;;;;;;;;;;;;;;;;;;5052197;28;4656;-59
2023/03/12 05:03:11;;;;;;;;;;;;;;;;;;5043957;28;1379;-58
2023/03/12 05:05:36;;;;;;;;;;;;;;;;;;5047927;28;4515;-58
2023/03/12 05:08:02;;;;;;;;;;;;;;;;;;5043736;28;5045;-58
2023/03/12 05:10:27;;;;;;;;;;;;;;;;;;5047763;28;4472;-59
2023/03/12 05:12:53;;;;;;;;;;;;;;;;;;5041936;28;4867;-59
2023/03/12 05:15:18;;;;;;;;;;;;;;;;;;5046976;28;1209;-59
2023/03/12 05:17:44;;;;;;;;;;;;;;;;;;5045707;28;4842;-59
2023/03/12 05:20:09;;;;;;;;;;;;;;;;;;5050841;28;4698;-59
2023/03/12 05:22:34;;;;;;;;;;;;;;;;;;5041130;28;4817;-58
2023/03/12 05:24:59;;;;;;;;;;;;;;;;;;5047935;28;5093;-59
2023/03/12 05:27:25;;;;;;;;;;;;;;;;;;5044067;28;3182;-59
2023/03/12 05:29:50;;;;;;;;;;;;;;;;;;5050778;28;4467;-58
2023/03/12 05:32:15;;;;;;;;;;;;;;;;;;5049562;28;4451;-59
2023/03/12 05:34:41;;;;;;;;;;;;;;;;;;5046266;28;4494;-58
2023/03/12 05:37:06;;;;;;;;;;;;;;;;;;5045285;28;4633;-59
2023/03/12 05:39:31;;;;;;;;;;;;;;;;;;5050309;28;1642;-58
2023/03/12 05:41:56;;;;;;;;;;;;;;;;;;5045160;28;4633;-59
2023/03/12 05:44:22;;;;;;;;;;;;;;;;;;5042172;28;5021;-58
2023/03/12 05:46:48;;;;;;;;;;;;;;;;;;5048605;28;4498;-60
2023/03/12 05:49:13;;;;;;;;;;;;;;;;;;5044184;28;4502;-58
2023/03/12 05:51:38;;;;;;;;;;;;;;;;;;5047467;28;3111;-59
2023/03/12 05:54:03;;;;;;;;;;;;;;;;;;5047382;28;4545;-59
2023/03/12 05:56:29;;;;;;;;;;;;;;;;;;5041299;28;4935;-59
2023/03/12 05:58:54;;;;;;;;;;;;;;;;;;5042170;28;4675;-59
2023/03/12 06:01:20;;;;;;;;;;;;;;;;;;5048995;28;5438;-60
2023/03/12 06:03:46;;;;;;;;;;;;;;;;;;5038733;28;5058;-59
2023/03/12 06:06:11;;;;;;;;;;;;;;;;;;5041519;28;1157;-59
2023/03/12 06:08:36;;;;;;;;;;;;;;;;;;5041865;28;5625;-59
2023/03/12 06:11:02;;;;;;;;;;;;;;;;;;5037636;28;5050;-58
2023/03/12 06:13:27;;;;;;;;;;;;;;;;;;5039679;28;4474;-58
2023/03/12 06:15:53;;;;;;;;;;;;;;;;;;5045710;28;5114;-59
2023/03/12 06:18:18;;;;;;;;;;;;;;;;;;5044296;28;4751;-59
2023/03/12 06:20:43;;;;;;;;;;;;;;;;;;5046229;28;4618;-59
2023/03/12 06:23:08;;;;;;;;;;;;;;;;;;5041669;28;4653;-59
2023/03/12 06:25:34;;;;;;;;;;;;;;;;;;5043984;28;4708;-60
2023/03/12 06:28:00;;;;;;;;;;;;;;;;;;5043543;28;5209;-59
2023/03/12 06:30:26;;;;;;;;;;;;;;;;;;5045596;28;1187;-59
2023/03/12 06:32:51;;;;;;;;;;;;;;;;;;5044298;28;5053;-59
2023/03/12 06:35:17;;;;;;;;;;;;;;;;;;5050675;28;5268;-60
2023/03/12 06:37:42;;;;;;;;;;;;;;;;;;5042000;28;4876;-59
2023/03/12 06:40:09;;;;;;;;;;;;;;;;;;5043228;28;4906;-57
2023/03/12 06:42:35;;;;;;;;;;;;;;;;;;5044771;28;1683;-59
2023/03/12 06:45:00;;;;;;;;;;;;;;;;;;5049456;28;4475;-57
2023/03/12 06:47:25;;;;;;;;;;;;;;;;;;5046074;28;4465;-58
2023/03/12 06:49:50;;;;;;;;;;;;;;;;;;5044854;28;4529;-56
2023/03/12 06:52:16;;;;;;;;;;;;;;;;;;5034961;28;5138;-55
2023/03/12 06:54:41;;;;;;;;;;;;;;;;;;5048862;28;5183;-57
2023/03/12 06:57:06;;;;;;;;;;;;;;;;;;5050568;28;3362;-58
2023/03/12 06:59:31;;;;;;;;;;;;;;;;;;5040778;28;4459;-59
2023/03/12 07:01:57;;;;;;;;;;;;;;;;;;5043118;28;4494;-56
2023/03/12 07:04:22;;;;;;;;;;;;;;;;;;5035193;28;4495;-57
2023/03/12 07:06:50;;;;;;;;;;;;;;;;;;5037975;28;4652;-57
2023/03/12 07:09:16;;;;;;;;;;;;;;;;;;5040224;28;3190;-57
2023/03/12 07:11:42;;;;;;;;;;;;;;;;;;5046404;28;4438;-58
2023/03/12 07:14:07;;;;;;;;;;;;;;;;;;5050319;28;5126;-57
2023/03/12 07:16:33;;;;;;;;;;;;;;;;;;5046469;28;4634;-57
2023/03/12 07:18:58;;;;;;;;;;;;;;;;;;5049224;28;4730;-58
2023/03/12 07:21:24;;;;;;;;;;;;;;;;;;5044438;28;3255;-57
2023/03/12 07:23:49;;;;;;;;;;;;;;;;;;5044974;28;4661;-57
2023/03/12 07:26:16;;;;;;;;;;;;;;;;;;5045000;28;4733;-56
2023/03/12 07:28:41;;;;;;;;;;;;;;;;;;5042120;28;5225;-56
2023/03/12 07:31:06;;;;;;;;;;;;;;;;;;5040178;28;4471;-57
2023/03/12 07:33:31;;;;;;;;;;;;;;;;;;5042281;28;1907;-57
2023/03/12 07:35:57;;;;;;;;;;;;;;;;;;5045350;28;4511;-58
2023/03/12 07:38:22;;;;;;;;;;;;;;;;;;5041134;28;4939;-58
2023/03/12 07:40:51;;;;;;;;;;;;;;;;;;5042082;28;5145;-58
2023/03/12 07:43:16;;;;;;;;;;;;;;;;;;5043109;28;4754;-54
2023/03/12 07:45:41;;;;;;;;;;;;;;;;;;5040259;28;4509;-56
2023/03/12 07:48:08;;;;;;;;;;;;;;;;;;5048109;28;3329;-56
2023/03/12 07:50:33;;;;;;;;;;;;;;;;;;5054157;28;5106;-56
2023/03/12 07:52:59;;;;;;;;;;;;;;;;;;5045804;28;4894;-55
2023/03/12 07:55:24;;;;;;;;;;;;;;;;;;5043093;28;5101;-56
2023/03/12 07:57:49;;;;;;;;;;;;;;;;;;5042642;28;5553;-57
2023/03/12 08:00:15;;;;;;;;;;;;;;;;;;5051310;28;3361;-56
2023/03/12 08:02:41;;;;;;;;;;;;;;;;;;5041888;28;4557;-57
2023/03/12 08:05:06;;;;;;;;;;;;;;;;;;5041812;28;5114;-57
2023/03/12 08:07:33;;;;;;;;;;;;;;;;;;5051839;28;4569;-57
2023/03/12 08:09:59;;;;;;;;;;;;;;;;;;5049555;28;5215;-56
2023/03/12 08:12:24;;;;;;;;;;;;;;;;;;5040806;28;2815;-56
2023/03/12 08:14:49;;;;;;;;;;;;;;;;;;5059461;28;4503;-57
2023/03/12 08:17:14;;;;;;;;;;;;;;;;;;5042533;28;4644;-57
2023/03/12 08:19:41;;;;;;;;;;;;;;;;;;5040431;28;5096;-58
2023/03/12 08:22:06;;;;;;;;;;;;;;;;;;5043134;28;5016;-59
2023/03/12 08:24:31;;;;;;;;;;;;;;;;;;5050349;28;3455;-57
2023/03/12 08:26:57;;;;;;;;;;;;;;;;;;5043887;28;4363;-59
2023/03/12 08:29:22;;;;;;;;;;;;;;;;;;5044489;28;4644;-60
2023/03/12 08:31:47;;;;;;;;;;;;;;;;;;5039095;28;4494;-59
2023/03/12 08:34:12;;;;;;;;;;;;;;;;;;5044734;28;4569;-53
2023/03/12 08:36:38;;;;;;;;;;;;;;;;;;5037751;28;3356;-57
2023/03/12 08:39:03;;;;;;;;;;;;;;;;;;5039930;28;4989;-58
2023/03/12 08:41:29;;;;;;;;;;;;;;;;;;5044690;28;4500;-57
2023/03/12 08:43:54;;;;;;;;;;;;;;;;;;5047345;28;5629;-59
2023/03/12 08:46:19;;;;;;;;;;;;;;;;;;5050448;28;4659;-58
2023/03/12 08:48:44;;;;;;;;;;;;;;;;;;5051078;28;4569;-58
2023/03/12 08:51:11;;;;;;;;;;;;;;;;;;5044762;28;3377;-58
2023/03/12 08:53:36;;;;;;;;;;;;;;;;;;5041660;28;4703;-57
2023/03/12 08:56:01;;;;;;;;;;;;;;;;;;5036976;28;4739;-58
2023/03/12 08:58:26;;;;;;;;;;;;;;;;;;5043067;28;5047;-57
2023/03/12 09:00:52;;;;;;;;;;;;;;;;;;5033786;28;4675;-57
2023/03/12 09:03:17;;;;;;;;;;;;;;;;;;5042562;28;3339;-58
2023/03/12 09:05:43;;;;;;;;;;;;;;;;;;5042376;28;5092;-58
2023/03/12 09:08:08;;;;;;;;;;;;;;;;;;5042701;28;4777;-57
2023/03/12 09:10:33;;;;;;;;;;;;;;;;;;5040881;28;4680;-57
2023/03/12 09:12:59;;;;;;;;;;;;;;;;;;5040239;28;4674;-58
2023/03/12 09:15:24;;;;;;;;;;;;;;;;;;5040599;28;3476;-59
2023/03/12 09:17:49;;;;;;;;;;;;;;;;;;5038613;28;4762;-58
2023/03/12 09:20:15;;;;;;;;;;;;;;;;;;5044411;28;4466;-57
2023/03/12 09:22:41;;;;;;;;;;;;;;;;;;5041868;28;5049;-59
2023/03/12 09:25:07;;;;;;;;;;;;;;;;;;5039624;28;5059;-57
2023/03/12 09:27:39;;;;;;;;;;;;;;;;;;5039204;28;3161;-58
2023/03/12 09:30:05;;;;;;;;;;;;;;;;;;5037863;28;5009;-56
2023/03/12 09:32:31;;;;;;;;;;;;;;;;;;5036170;28;4605;-58
2023/03/12 09:34:56;;;;;;;;;;;;;;;;;;5031970;28;4999;-59
2023/03/12 09:37:21;;;;;;;;;;;;;;;;;;5047911;28;4517;-57
2023/03/12 09:39:48;;;;;;;;;;;;;;;;;;5037939;28;4462;-58
2023/03/12 09:42:15;;;;;;;;;;;;;;;;;;5040623;28;3333;-60
2023/03/12 09:44:41;;;;;;;;;;;;;;;;;;5041694;28;5422;-58
2023/03/12 09:47:14;;;;;;;;;;;;;;;;;;5043074;28;5548;-57
2023/03/12 09:49:42;;;;;;;;;;;;;;;;;;5039562;28;4703;-57
2023/03/12 09:52:16;;;;;;;;;;;;;;;;;;5044159;28;4699;-57
2023/03/12 09:54:43;;;;;;;;;;;;;;;;;;5040243;28;4523;-54
2023/03/12 09:57:20;;;;;;;;;;;;;;;;;;5046323;28;3101;-55
2023/03/12 09:59:46;;;;;;;;;;;;;;;;;;5039810;28;4445;-57
2023/03/12 10:02:34;;;;;;;;;;;;;;;;;;5037865;28;4869;-56
2023/03/12 10:05:03;;;;;;;;;;;;;;;;;;5042530;28;5131;-56
2023/03/12 10:07:32;;;;;;;;;;;;;;;;;;5048447;28;5180;-56
2023/03/12 10:10:17;;;;;;;;;;;;;;;;;;5047788;28;5071;-55
2023/03/12 10:12:42;;;;;;;;;;;;;;;;;;5045007;28;4514;-57
2023/03/12 10:15:26;;;;;;;;;;;;;;;;;;5049461;28;3325;-56
2023/03/12 10:17:57;;;;;;;;;;;;;;;;;;5047103;28;4917;-56
2023/03/12 10:20:28;;;;;;;;;;;;;;;;;;5043324;28;4807;-55
2023/03/12 10:23:00;;;;;;;;;;;;;;;;;;5053814;28;4511;-54
2023/03/12 10:25:41;;;;;;;;;;;;;;;;;;5050494;28;4887;-55
2023/03/12 10:28:12;;;;;;;;;;;;;;;;;;5043658;28;4614;-55
2023/03/12 10:30:38;;;;;;;;;;;;;;;;;;5042014;28;3581;-54
2023/03/12 10:33:04;;;;;;;;;;;;;;;;;;5043694;28;4975;-57
2023/03/12 10:35:30;;;;;;;;;;;;;;;;;;5043768;28;4583;-58
2023/03/12 10:37:55;;;;;;;;;;;;;;;;;;5051942;28;4506;-55
2023/03/12 10:40:22;;;;;;;;;;;;;;;;;;5039596;28;5077;-54
2023/03/12 10:42:47;;;;;;;;;;;;;;;;;;5048722;28;4542;-54
2023/03/12 10:45:18;;;;;;;;;;;;;;;;;;5042053;28;3299;-55
2023/03/12 10:47:44;;;;;;;;;;;;;;;;;;5038423;28;4594;-54
2023/03/12 10:50:28;;;;;;;;;;;;;;;;;;5033881;28;4955;-56
2023/03/12 10:53:14;;;;;;;;;;;;;;;;;;5044376;28;5934;-55
2023/03/12 10:55:39;;;;;;;;;;;;;;;;;;5045380;28;4675;-55
2023/03/12 10:58:04;;;;;;;;;;;;;;;;;;5054845;28;4942;-54
2023/03/12 11:00:31;;;;;;;;;;;;;;;;;;5042926;28;1372;-54
2023/03/12 11:02:59;;;;;;;;;;;;;;;;;;5041294;28;4572;-56
2023/03/12 11:05:29;;;;;;;;;;;;;;;;;;5032106;28;5081;-55
2023/03/12 11:07:54;;;;;;;;;;;;;;;;;;5041128;28;4544;-55
2023/03/12 11:10:23;;;;;;;;;;;;;;;;;;5037045;28;4447;-55
2023/03/12 11:12:51;;;;;;;;;;;;;;;;;;5037010;28;4511;-55
2023/03/12 11:15:21;;;;;;;;;;;;;;;;;;5044637;28;1082;-56
2023/03/12 11:17:46;;;;;;;;;;;;;;;;;;5045839;28;4866;-54
2023/03/12 11:20:25;;;;;;;;;;;;;;;;;;5037730;28;4457;-56
2023/03/12 11:22:50;;;;;;;;;;;;;;;;;;5048473;28;4599;-55
2023/03/12 11:25:20;;;;;;;;;;;;;;;;;;5048684;28;5802;-56
2023/03/12 11:27:46;;;;;;;;;;;;;;;;;;5044005;28;4636;-56
2023/03/12 11:30:16;;;;;;;;;;;;;;;;;;5044145;28;1144;-55
2023/03/12 11:32:45;;;;;;;;;;;;;;;;;;5035234;28;4627;-54
2023/03/12 11:35:11;;;;;;;;;;;;;;;;;;5035473;28;4508;-56
2023/03/12 11:37:59;;;;;;;;;;;;;;;;;;5039361;28;4703;-55
2023/03/12 11:40:28;;;;;;;;;;;;;;;;;;5043529;28;5007;-56
2023/03/12 11:43:17;;;;;;;;;;;;;;;;;;5043071;28;4863;-56
2023/03/12 11:45:48;;;;;;;;;;;;;;;;;;5042274;28;4438;-54
2023/03/12 11:48:21;;;;;;;;;;;;;;;;;;5041808;28;1205;-54
2023/03/12 11:50:50;;;;;;;;;;;;;;;;;;5046550;28;4635;-53
2023/03/12 11:53:27;;;;;;;;;;;;;;;;;;5048911;28;5095;-55
2023/03/12 11:55:53;;;;;;;;;;;;;;;;;;5047644;28;4459;-56
2023/03/12 11:58:19;;;;;;;;;;;;;;;;;;5049027;28;4721;-54
2023/03/12 12:00:48;;;;;;;;;;;;;;;;;;5044355;28;4829;-55
2023/03/12 12:03:39;;;;;;;;;;;;;;;;;;5046364;28;1106;-56
2023/03/12 12:06:23;;;;;;;;;;;;;;;;;;5047345;28;5214;-56
2023/03/12 12:08:53;;;;;;;;;;;;;;;;;;5043945;28;4437;-56
2023/03/12 12:11:22;;;;;;;;;;;;;;;;;;5045694;28;5342;-55
2023/03/12 12:13:51;;;;;;;;;;;;;;;;;;5044804;28;4439;-54
2023/03/12 12:16:19;;;;;;;;;;;;;;;;;;5043783;28;5096;-55
2023/03/12 12:18:54;;;;;;;;;;;;;;;;;;5039091;28;4731;-56
2023/03/12 12:21:31;;;;;;;;;;;;;;;;;;5043394;28;1069;-54
2023/03/12 12:23:58;;;;;;;;;;;;;;;;;;5061896;28;5082;-56
2023/03/12 12:26:50;;;;;;;;;;;;;;;;;;5080437;28;4931;-56
2023/03/12 12:29:42;;;;;;;;;;;;;;;;;;5044035;28;5902;-55
2023/03/12 12:32:10;;;;;;;;;;;;;;;;;;5077035;28;5023;-55
2023/03/12 12:34:42;;;;;;;;;;;;;;;;;;5042308;28;4689;-56
2023/03/12 12:37:14;;;;;;;;;;;;;;;;;;5045403;28;4644;-56
2023/03/12 12:39:40;;;;;;;;;;;;;;;;;;5048654;28;1240;-54
2023/03/12 12:42:06;;;;;;;;;;;;;;;;;;5079457;28;5320;-54
2023/03/12 12:44:32;;;;;;;;;;;;;;;;;;5038777;28;4491;-57
2023/03/12 12:47:00;;;;;;;;;;;;;;;;;;5041907;28;5091;-57
2023/03/12 12:49:29;;;;;;;;;;;;;;;;;;5046233;28;4628;-57
2023/03/12 12:51:58;;;;;;;;;;;;;;;;;;5041001;28;4787;-55
2023/03/12 12:54:39;;;;;;;;;;;;;;;;;;5046822;28;1973;-55
2023/03/12 12:57:15;;;;;;;;;;;;;;;;;;5044524;28;4926;-54
2023/03/12 12:59:52;;;;;;;;;;;;;;;;;;5047674;28;4439;-56
2023/03/12 13:02:21;;;;;;;;;;;;;;;;;;5039113;28;4542;-55
2023/03/12 13:04:47;;;;;;;;;;;;;;;;;;5056751;28;5585;-55
2023/03/12 13:07:12;;;;;;;;;;;;;;;;;;5047619;28;5174;-55
2023/03/12 13:09:38;;;;;;;;;;;;;;;;;;5047700;28;1214;-57
2023/03/12 13:12:10;;;;;;;;;;;;;;;;;;5037405;28;4600;-55
2023/03/12 13:14:39;;;;;;;;;;;;;;;;;;5044628;28;4676;-55
2023/03/12 13:17:05;;;;;;;;;;;;;;;;;;5032161;28;4483;-55
2023/03/12 13:19:31;;;;;;;;;;;;;;;;;;5044011;28;4722;-54
2023/03/12 13:22:20;;;;;;;;;;;;;;;;;;5045732;28;4463;-55
2023/03/12 13:24:50;;;;;;;;;;;;;;;;;;5042254;28;4488;-56
2023/03/12 13:27:21;;;;;;;;;;;;;;;;;;5042365;28;1196;-56
2023/03/12 13:29:50;;;;;;;;;;;;;;;;;;5057544;28;4579;-54
2023/03/12 13:32:33;;;;;;;;;;;;;;;;;;5043600;28;4922;-56
2023/03/12 13:34:58;;;;;;;;;;;;;;;;;;5039193;28;5106;-55
2023/03/12 13:37:28;;;;;;;;;;;;;;;;;;5047498;28;4451;-55
2023/03/12 13:39:54;;;;;;;;;;;;;;;;;;5038193;28;5036;-55
2023/03/12 13:42:22;;;;;;;;;;;;;;;;;;5039381;28;1145;-55
2023/03/12 13:44:47;;;;;;;;;;;;;;;;;;5037157;28;4647;-53
2023/03/12 13:47:21;;;;;;;;;;;;;;;;;;5040901;28;4975;-56
2023/03/12 13:50:05;;;;;;;;;;;;;;;;;;5046771;28;4917;-56
2023/03/12 13:52:36;;;;;;;;;;;;;;;;;;5046212;28;5135;-54
2023/03/12 13:55:01;;;;;;;;;;;;;;;;;;5038434;28;4998;-54
2023/03/12 13:57:40;;;;;;;;;;;;;;;;;;5038187;28;1193;-56
2023/03/12 14:00:15;;;;;;;;;;;;;;;;;;5043447;28;4685;-54
2023/03/12 14:02:43;;;;;;;;;;;;;;;;;;5035590;28;4633;-56
2023/03/12 14:05:09;;;;;;;;;;;;;;;;;;5040983;28;4490;-57
2023/03/12 14:07:53;;;;;;;;;;;;;;;;;;5041499;28;4460;-55
2023/03/12 14:10:24;;;;;;;;;;;;;;;;;;5037424;28;4715;-54
2023/03/12 14:12:53;;;;;;;;;;;;;;;;;;5041551;28;4710;-56
2023/03/12 14:15:30;;;;;;;;;;;;;;;;;;5043912;28;3219;-57
2023/03/12 14:17:57;;;;;;;;;;;;;;;;;;5038681;28;4861;-57
2023/03/12 14:20:22;;;;;;;;;;;;;;;;;;5045657;28;4471;-55
2023/03/12 14:22:49;;;;;;;;;;;;;;;;;;5025157;28;5028;-55
2023/03/12 14:25:24;;;;;;;;;;;;;;;;;;5040055;28;4449;-58
2023/03/12 14:27:50;;;;;;;;;;;;;;;;;;5038808;28;5106;-54
2023/03/12 14:30:18;;;;;;;;;;;;;;;;;;5045568;28;3276;-54
2023/03/12 14:32:44;;;;;;;;;;;;;;;;;;5041666;28;4561;-56
2023/03/12 14:35:12;;;;;;;;;;;;;;;;;;5039808;28;5106;-55
2023/03/12 14:37:51;;;;;;;;;;;;;;;;;;5046728;28;4536;-55
2023/03/12 14:40:25;;;;;;;;;;;;;;;;;;5044841;28;4751;-58
2023/03/12 14:42:50;;;;;;;;;;;;;;;;;;5044127;28;4491;-55
2023/03/12 14:45:17;;;;;;;;;;;;;;;;;;5043532;28;1117;-55
2023/03/12 14:47:43;;;;;;;;;;;;;;;;;;5044312;28;4404;-57
2023/03/12 14:50:24;;;;;;;;;;;;;;;;;;5030119;28;5252;-59
2023/03/12 14:52:50;;;;;;;;;;;;;;;;;;5042738;28;4587;-57
2023/03/12 14:55:19;;;;;;;;;;;;;;;;;;5043761;28;4978;-57
2023/03/12 14:57:45;;;;;;;;;;;;;;;;;;5048526;28;4561;-56
2023/03/12 15:00:28;;;;;;;;;;;;;;;;;;5046707;28;3288;-58
2023/03/12 15:02:54;;;;;;;;;;;;;;;;;;5043235;28;4572;-57
2023/03/12 15:05:19;;;;;;;;;;;;;;;;;;5040683;28;5435;-57
2023/03/12 15:07:45;;;;;;;;;;;;;;;;;;5045859;28;4889;-58
2023/03/12 15:10:16;;;;;;;;;;;;;;;;;;5031590;28;4929;-58
2023/03/12 15:12:42;;;;;;;;;;;;;;;;;;5042948;28;5621;-56
2023/03/12 15:15:26;;;;;;;;;;;;;;;;;;5046069;28;3109;-56
2023/03/12 15:17:51;;;;;;;;;;;;;;;;;;5046365;28;4885;-58
2023/03/12 15:20:16;;;;;;;;;;;;;;;;;;5054499;28;4811;-56
2023/03/12 15:22:42;;;;;;;;;;;;;;;;;;5042518;28;4507;-57
2023/03/12 15:25:19;;;;;;;;;;;;;;;;;;5049919;28;4966;-58
2023/03/12 15:27:44;;;;;;;;;;;;;;;;;;5080141;28;4658;-57
2023/03/12 15:30:25;;;;;;;;;;;;;;;;;;5050058;28;1076;-58
2023/03/12 15:33:04;;;;;;;;;;;;;;;;;;5052114;28;4412;-59
2023/03/12 15:35:29;;;;;;;;;;;;;;;;;;5044903;28;5041;-57
2023/03/12 15:37:54;;;;;;;;;;;;;;;;;;5045834;28;4486;-56
2023/03/12 15:40:26;;;;;;;;;;;;;;;;;;5045804;28;5271;-57
2023/03/12 15:42:53;;;;;;;;;;;;;;;;;;5035449;28;4571;-56
2023/03/12 15:45:22;;;;;;;;;;;;;;;;;;5056725;28;3279;-55
2023/03/12 15:47:48;;;;;;;;;;;;;;;;;;5050838;28;5175;-57
2023/03/12 15:50:19;;;;;;;;;;;;;;;;;;5051414;28;4618;-58
2023/03/12 15:53:04;;;;;;;;;;;;;;;;;;5046965;28;4461;-57
2023/03/12 15:55:30;;;;;;;;;;;;;;;;;;5043334;28;4736;-59
2023/03/12 15:57:56;;;;;;;;;;;;;;;;;;5043030;28;4464;-58
2023/03/12 16:00:25;;;;;;;;;;;;;;;;;;5038114;28;1205;-57
2023/03/12 16:02:50;;;;;;;;;;;;;;;;;;5049735;28;4664;-56
2023/03/12 16:05:16;;;;;;;;;;;;;;;;;;5059643;28;4530;-56
2023/03/12 16:07:41;;;;;;;;;;;;;;;;;;5054865;28;4608;-57
2023/03/12 16:10:06;;;;;;;;;;;;;;;;;;5045265;28;4905;-56
2023/03/12 16:12:32;;;;;;;;;;;;;;;;;;5040162;28;3596;-58
2023/03/12 16:14:57;;;;;;;;;;;;;;;;;;5039193;28;4552;-57
2023/03/12 16:17:22;;;;;;;;;;;;;;;;;;5047718;28;4509;-56
2023/03/12 16:19:48;;;;;;;;;;;;;;;;;;5047203;28;5049;-55
2023/03/12 16:22:13;;;;;;;;;;;;;;;;;;5045323;28;4810;-56
2023/03/12 16:24:38;;;;;;;;;;;;;;;;;;5041879;28;3111;-57
2023/03/12 16:27:05;;;;;;;;;;;;;;;;;;5044857;28;4585;-55
2023/03/12 16:29:32;;;;;;;;;;;;;;;;;;5038736;28;4657;-56
2023/03/12 16:31:57;;;;;;;;;;;;;;;;;;5037254;28;5062;-56
2023/03/12 16:34:22;;;;;;;;;;;;;;;;;;5036695;28;4944;-55
2023/03/12 16:36:48;;;;;;;;;;;;;;;;;;5038207;28;4891;-53
2023/03/12 16:39:13;;;;;;;;;;;;;;;;;;5041490;28;3476;-54
2023/03/12 16:41:38;;;;;;;;;;;;;;;;;;5042628;28;4497;-56
2023/03/12 16:44:04;;;;;;;;;;;;;;;;;;5040076;28;4515;-59
2023/03/12 16:46:32;;;;;;;;;;;;;;;;;;5032548;28;4638;-55
2023/03/12 16:48:57;;;;;;;;;;;;;;;;;;5042190;28;5005;-57
2023/03/12 16:51:23;;;;;;;;;;;;;;;;;;5038038;28;3347;-57
2023/03/12 16:53:48;;;;;;;;;;;;;;;;;;5036601;28;4592;-56
2023/03/12 16:56:17;;;;;;;;;;;;;;;;;;5036319;28;4507;-55
2023/03/12 16:58:43;;;;;;;;;;;;;;;;;;5040201;28;4599;-52
2023/03/12 17:01:10;;;;;;;;;;;;;;;;;;5047554;28;4532;-56
2023/03/12 17:03:36;;;;;;;;;;;;;;;;;;5048928;28;2026;-56
2023/03/12 17:06:02;;;;;;;;;;;;;;;;;;5044848;28;5070;-58